Terminal Aerodrome Forecast
Issued by NWS Wilmington, OH

Current Version | Previous Version | Graphics & Text | Print | Product List | Glossary On
Versions: 1 2 3 4 5 6 7 8 9 10 11 12 13 14 15 16 17 18 19 20 21 22 23 24 25 26 27
000
FTUS41 KILN 231000 AAA
TAFCMH
TAF AMD
KCMH 231031Z 2311/2406 17006KT P6SM VCSH SCT050 BKN080
     FM231300 15008KT P6SM BKN030 OVC080
     FM232100 12010G16KT P6SM VCSH BKN040 OVC080
     FM232300 12010G18KT 4SM -SHRA BR OVC025
     FM240400 16014G26KT 3SM -SHRA BR OVC009=

USA.gov is the U.S. government's official web portal to all federal, state and local government web resources and services.